Time;durP1;ratioP1;P1;durP2;ratioP2;P2;SDS_P1;SDS_P2;PMS_P1;PMS_P2;Temp;Humidity;BMP_temperature;BMP_pressure;BME280_temperature;BME280_humidity;BME280_pressure;Samples;Min_cycle;Max_cycle;Signal;HPM_P1;HPM_P2
2021/01/10 00:01:47;;;;;;;26.40;10.27;;;;;;;-5.96;91.27;99404.09;5070725;28;20050;-75
2021/01/10 00:04:12;;;;;;;22.80;10.02;;;;;;;-5.76;91.46;99439.84;5064209;28;20390;-75
2021/01/10 00:06:37;;;;;;;22.10;10.40;;;;;;;-5.87;91.17;99421.13;5069291;28;20032;-74
2021/01/10 00:09:04;;;;;;;24.83;10.25;;;;;;;-5.87;90.90;99439.56;5070585;28;20043;-74
2021/01/10 00:11:30;;;;;;;24.98;10.23;;;;;;;-5.77;90.98;99427.59;5070338;28;20141;-75
2021/01/10 00:13:55;;;;;;;23.88;9.95;;;;;;;-5.55;91.00;99432.53;5069466;28;20028;-74
2021/01/10 00:16:20;;;;;;;28.05;10.88;;;;;;;-5.40;90.70;99446.59;5070294;28;20029;-74
2021/01/10 00:18:45;;;;;;;21.30;8.57;;;;;;;-5.48;90.43;99447.03;5070940;28;20086;-74
2021/01/10 00:21:11;;;;;;;24.52;9.35;;;;;;;-5.63;90.14;99430.31;5070399;28;20764;-74
2021/01/10 00:23:36;;;;;;;21.95;9.15;;;;;;;-5.72;90.42;99426.41;5067052;28;20021;-75
2021/01/10 00:26:01;;;;;;;21.60;8.98;;;;;;;-5.89;90.67;99421.22;5053406;28;20033;-74
2021/01/10 00:28:27;;;;;;;18.98;8.65;;;;;;;-6.00;90.31;99415.72;5074731;28;20052;-74
2021/01/10 00:30:52;;;;;;;25.85;10.32;;;;;;;-5.89;90.81;99433.56;5075022;28;20398;-74
2021/01/10 00:33:18;;;;;;;23.13;9.65;;;;;;;-6.01;90.93;99433.31;5073573;28;20039;-74
2021/01/10 00:35:43;;;;;;;23.73;10.77;;;;;;;-6.10;90.82;99440.84;5074433;28;20441;-74
2021/01/10 00:38:08;;;;;;;27.50;12.05;;;;;;;-6.22;90.67;99411.59;5075034;28;20107;-74
2021/01/10 00:40:33;;;;;;;31.98;13.13;;;;;;;-6.31;91.03;99427.03;5074817;28;20496;-74
2021/01/10 00:42:59;;;;;;;30.98;12.05;;;;;;;-6.34;90.95;99414.91;5065948;28;20024;-74
2021/01/10 00:45:24;;;;;;;32.55;13.10;;;;;;;-6.06;91.33;99430.06;5074512;28;20028;-74
2021/01/10 00:47:53;;;;;;;23.67;10.43;;;;;;;-6.08;91.01;99423.19;5074888;28;20017;-74
2021/01/10 00:50:18;;;;;;;26.10;9.63;;;;;;;-6.09;91.03;99409.16;5072520;28;20025;-74
2021/01/10 00:52:43;;;;;;;23.10;9.65;;;;;;;-6.07;90.74;99438.91;5062539;28;20024;-74
2021/01/10 00:55:09;;;;;;;22.05;9.80;;;;;;;-6.30;90.37;99428.75;5072548;28;20067;-74
2021/01/10 00:57:34;;;;;;;25.30;9.88;;;;;;;-6.27;90.70;99442.59;5069686;28;20430;-74
2021/01/10 00:59:59;;;;;;;22.58;9.55;;;;;;;-6.36;90.71;99431.72;5073625;28;20035;-74
2021/01/10 01:02:25;;;;;;;22.83;9.43;;;;;;;-6.34;91.01;99437.75;5070437;28;20024;-74
2021/01/10 01:04:50;;;;;;;21.88;10.45;;;;;;;-6.35;91.01;99446.59;5074365;28;20422;-74
2021/01/10 01:07:15;;;;;;;25.08;9.77;;;;;;;-6.52;91.30;99419.38;5076619;28;20023;-73
2021/01/10 01:09:41;;;;;;;21.35;9.23;;;;;;;-6.66;91.62;99398.19;5081144;28;20098;-73
2021/01/10 01:12:07;;;;;;;22.73;9.57;;;;;;;-6.52;91.66;99424.63;5082803;28;20032;-73
2021/01/10 01:14:32;;;;;;;19.95;8.52;;;;;;;-6.50;91.55;99438.53;5076976;28;20514;-73
2021/01/10 01:16:58;;;;;;;20.73;8.52;;;;;;;-6.49;91.56;99453.44;5082813;28;20032;-74
2021/01/10 01:19:23;;;;;;;19.90;8.88;;;;;;;-6.57;91.51;99462.66;5083494;28;20405;-73
2021/01/10 01:21:52;;;;;;;23.33;9.50;;;;;;;-6.67;91.58;99446.47;5079444;28;20040;-73
2021/01/10 01:24:19;;;;;;;23.75;9.35;;;;;;;-6.71;91.84;99437.03;5080153;28;20032;-73
2021/01/10 01:26:46;;;;;;;25.33;10.18;;;;;;;-6.34;91.77;99474.59;5076161;28;20035;-73
2021/01/10 01:29:12;;;;;;;23.70;9.73;;;;;;;-6.26;91.62;99461.88;5071010;28;20178;-73
2021/01/10 01:31:37;;;;;;;23.35;9.25;;;;;;;-6.15;91.15;99458.72;5082522;28;20506;-73
2021/01/10 01:34:02;;;;;;;25.08;9.75;;;;;;;-5.94;90.90;99473.34;5081344;28;20029;-73
2021/01/10 01:36:27;;;;;;;23.25;9.75;;;;;;;-5.93;90.35;99480.28;5096147;28;20060;-73
2021/01/10 01:38:55;;;;;;;23.92;9.98;;;;;;;-6.20;90.31;99454.53;5098469;28;20017;-75
2021/01/10 01:41:21;;;;;;;19.48;8.88;;;;;;;-6.19;90.44;99482.53;5098245;28;20020;-73
2021/01/10 01:43:47;;;;;;;27.02;9.43;;;;;;;-6.45;90.29;99468.13;5094046;28;20028;-74
2021/01/10 01:46:25;;;;;;;25.60;9.38;;;;;;;-6.44;90.67;99477.72;5091225;28;20036;-73
2021/01/10 01:48:51;;;;;;;16.10;7.10;;;;;;;-6.43;90.32;99478.56;5094499;28;20024;-75
2021/01/10 01:51:18;;;;;;;25.45;9.25;;;;;;;-6.50;90.55;99485.91;5094575;28;20035;-76
2021/01/10 01:53:44;;;;;;;21.23;8.50;;;;;;;-6.76;90.49;99463.56;5096757;28;20031;-74
2021/01/10 01:56:09;;;;;;;25.75;10.50;;;;;;;-6.51;91.27;99473.72;5096182;28;20024;-74
2021/01/10 01:58:34;;;;;;;21.65;9.40;;;;;;;-6.63;91.25;99483.09;5096053;28;20052;-74
2021/01/10 02:01:00;;;;;;;24.98;10.23;;;;;;;-6.71;91.12;99474.72;5093937;28;20020;-74
2021/01/10 02:03:28;;;;;;;21.50;9.07;;;;;;;-6.67;91.08;99491.22;5093258;28;20028;-73
2021/01/10 02:05:59;;;;;;;23.05;9.00;;;;;;;-6.73;91.38;99462.56;5082624;28;20028;-73
2021/01/10 02:08:30;;;;;;;20.70;9.40;;;;;;;-6.80;91.49;99466.47;5079642;28;20078;-72
2021/01/10 02:10:59;;;;;;;21.85;9.45;;;;;;;-6.80;91.15;99462.03;5081469;28;20064;-73
2021/01/10 02:13:26;;;;;;;23.27;8.55;;;;;;;-6.78;91.31;99483.88;5079604;28;20047;-72
2021/01/10 02:15:53;;;;;;;19.33;8.43;;;;;;;-6.70;91.25;99481.69;5077689;28;20028;-73
2021/01/10 02:18:20;;;;;;;24.63;8.93;;;;;;;-6.71;91.42;99482.59;5076034;28;20248;-72
2021/01/10 02:20:46;;;;;;;23.30;8.90;;;;;;;-6.72;91.30;99475.66;5076328;28;20025;-72
2021/01/10 02:23:17;;;;;;;24.50;9.50;;;;;;;-6.79;91.10;99479.53;5076516;28;20390;-72
2021/01/10 02:25:44;;;;;;;26.92;10.18;;;;;;;-7.06;91.24;99458.94;5071474;28;20032;-72
2021/01/10 02:28:10;;;;;;;22.65;8.98;;;;;;;-6.86;91.68;99479.00;5080994;28;20036;-73
2021/01/10 02:30:41;;;;;;;22.92;9.48;;;;;;;-6.92;91.68;99476.66;5080506;28;20024;-74
2021/01/10 02:33:12;;;;;;;28.05;9.10;;;;;;;-6.81;91.61;99467.38;5080466;28;20024;-72
2021/01/10 02:35:40;;;;;;;26.33;10.70;;;;;;;-6.71;91.96;99485.25;5069615;28;20463;-73
2021/01/10 02:38:19;;;;;;;23.95;8.50;;;;;;;-6.94;91.21;99456.63;5079715;28;20414;-73
2021/01/10 02:41:00;;;;;;;20.67;8.30;;;;;;;-6.80;91.41;99469.94;5079907;28;20026;-73
2021/01/10 02:43:29;;;;;;;21.33;9.13;;;;;;;-6.76;91.22;99478.50;5075442;28;20033;-72
2021/01/10 02:46:00;;;;;;;21.42;8.13;;;;;;;-7.07;90.56;99427.47;5089300;28;20020;-75
2021/01/10 02:48:25;;;;;;;20.25;7.43;;;;;;;-6.80;90.87;99455.94;5082237;28;20031;-73
2021/01/10 02:50:50;;;;;;;19.98;7.60;;;;;;;-6.77;90.89;99447.88;5092848;28;20048;-73
2021/01/10 02:53:16;;;;;;;21.98;7.60;;;;;;;-6.88;90.43;99437.91;5094452;28;20024;-74
2021/01/10 02:55:41;;;;;;;14.13;6.20;;;;;;;-6.81;90.39;99464.75;5095521;28;20040;-72
2021/01/10 02:58:27;;;;;;;18.40;7.63;;;;;;;-6.86;90.18;99460.59;5093661;28;20024;-75
2021/01/10 03:00:59;;;;;;;18.58;7.03;;;;;;;-6.93;90.77;99435.50;5084071;28;20033;-73
2021/01/10 03:03:27;;;;;;;18.77;6.65;;;;;;;-6.94;90.75;99444.34;5080669;28;20024;-73
2021/01/10 03:05:54;;;;;;;15.38;5.82;;;;;;;-6.95;90.77;99462.81;5080075;28;20092;-73
2021/01/10 03:08:19;;;;;;;17.05;7.03;;;;;;;-7.10;90.86;99448.66;5079806;28;20052;-72
2021/01/10 03:10:48;;;;;;;16.00;6.97;;;;;;;-7.17;91.35;99442.00;5077067;28;20482;-75
2021/01/10 03:13:14;;;;;;;20.15;7.65;;;;;;;-7.06;91.07;99450.22;5070164;28;20024;-72
2021/01/10 03:15:40;;;;;;;18.35;7.72;;;;;;;-7.00;91.00;99455.16;5068984;28;20028;-72
2021/01/10 03:18:14;;;;;;;25.25;8.00;;;;;;;-6.93;91.09;99455.72;5077355;28;20612;-73
2021/01/10 03:20:39;;;;;;;19.25;8.30;;;;;;;-6.84;90.91;99429.78;5059291;28;20088;-72
2021/01/10 03:23:04;;;;;;;17.35;6.82;;;;;;;-6.56;90.75;99441.50;5060139;28;20075;-74
2021/01/10 03:25:30;;;;;;;15.70;6.75;;;;;;;-6.68;89.92;99415.81;5076052;28;20043;-72
2021/01/10 03:27:55;;;;;;;13.15;5.97;;;;;;;-6.62;89.34;99444.47;5078633;28;20044;-73
2021/01/10 03:30:20;;;;;;;20.10;7.32;;;;;;;-7.02;89.22;99420.22;5074456;28;20029;-72
2021/01/10 03:32:46;;;;;;;18.73;7.30;;;;;;;-6.99;89.70;99424.47;5065489;28;20028;-72
2021/01/10 03:35:15;;;;;;;18.38;7.68;;;;;;;-6.74;89.54;99448.56;5071310;28;20028;-73
2021/01/10 03:37:40;;;;;;;16.80;6.38;;;;;;;-7.22;88.78;99405.44;5092295;28;20402;-72
2021/01/10 03:40:07;;;;;;;18.35;7.20;;;;;;;-7.07;89.36;99440.63;5078577;28;20036;-72
2021/01/10 03:42:32;;;;;;;17.60;7.75;;;;;;;-7.25;90.45;99402.94;5077402;28;20035;-72
2021/01/10 03:44:58;;;;;;;17.90;7.00;;;;;;;-7.33;90.65;99389.34;5077520;28;20249;-73
2021/01/10 03:47:23;;;;;;;13.88;5.75;;;;;;;-7.20;90.89;99434.28;5077596;28;20031;-73
2021/01/10 03:49:48;;;;;;;16.40;6.00;;;;;;;-7.21;91.20;99435.19;5076092;28;20025;-73
2021/01/10 03:52:14;;;;;;;13.77;5.88;;;;;;;-7.14;90.81;99441.84;5072258;28;20033;-73
2021/01/10 03:54:39;;;;;;;11.77;4.82;;;;;;;-7.15;90.86;99419.09;5066757;28;20375;-72
2021/01/10 03:57:04;;;;;;;13.00;5.45;;;;;;;-7.11;90.95;99410.97;5077982;28;20027;-73
2021/01/10 03:59:29;;;;;;;11.45;5.50;;;;;;;-6.90;90.69;99437.97;5075219;28;20056;-74
2021/01/10 04:01:55;;;;;;;14.48;5.47;;;;;;;-6.99;90.62;99437.63;5069364;28;20036;-73
2021/01/10 04:04:20;;;;;;;11.73;5.72;;;;;;;-6.92;90.30;99455.59;5078535;28;20050;-73
2021/01/10 04:06:45;;;;;;;17.50;6.72;;;;;;;-6.98;90.50;99465.59;5077225;28;22376;-73
2021/01/10 04:09:11;;;;;;;16.25;7.22;;;;;;;-7.26;90.66;99427.53;5063675;28;20497;-73
2021/01/10 04:11:36;;;;;;;26.17;6.97;;;;;;;-7.11;91.08;99454.84;5081730;28;20028;-73
2021/01/10 04:14:01;;;;;;;15.80;6.63;;;;;;;-7.19;91.16;99452.59;5076538;28;20035;-73
2021/01/10 04:16:27;;;;;;;13.27;6.28;;;;;;;-7.14;90.30;99439.22;5078428;28;20079;-73
2021/01/10 04:18:52;;;;;;;14.98;6.50;;;;;;;-6.85;90.30;99464.91;5078781;28;20028;-73
2021/01/10 04:21:18;;;;;;;19.63;6.80;;;;;;;-6.93;90.20;99464.44;5090305;28;20033;-73
2021/01/10 04:23:43;;;;;;;21.60;6.88;;;;;;;-7.01;90.00;99460.50;5095829;28;20063;-74
2021/01/10 04:26:09;;;;;;;19.85;7.22;;;;;;;-7.20;90.15;99440.38;5095944;28;20048;-74
2021/01/10 04:28:34;;;;;;;18.33;7.63;;;;;;;-7.06;89.64;99455.47;5089067;28;20017;-75
2021/01/10 04:31:00;;;;;;;15.80;7.55;;;;;;;-6.85;89.95;99470.16;5092877;28;20058;-73
2021/01/10 04:33:26;;;;;;;17.83;6.80;;;;;;;-6.74;89.67;99456.47;5086765;28;20031;-75
2021/01/10 04:35:52;;;;;;;17.92;6.72;;;;;;;-6.97;89.65;99428.69;5070364;28;20056;-73
2021/01/10 04:38:17;;;;;;;18.27;7.68;;;;;;;-6.79;89.73;99461.09;5061969;28;20025;-72
2021/01/10 04:40:43;;;;;;;16.58;7.90;;;;;;;-6.69;89.95;99449.19;5071843;28;20143;-73
2021/01/10 04:43:09;;;;;;;15.10;6.30;;;;;;;-6.52;90.20;99460.63;5077541;28;20055;-73
2021/01/10 04:45:35;;;;;;;16.50;6.72;;;;;;;-6.58;90.64;99446.00;5076999;28;20021;-73
2021/01/10 04:48:02;;;;;;;16.23;6.60;;;;;;;-6.54;90.06;99441.44;5072418;28;20028;-73
2021/01/10 04:50:30;;;;;;;14.98;7.15;;;;;;;-6.28;90.39;99446.19;5077601;28;20024;-74
2021/01/10 04:52:58;;;;;;;17.75;7.57;;;;;;;-6.19;90.33;99434.28;5076016;28;20119;-73
2021/01/10 04:55:24;;;;;;;14.90;6.60;;;;;;;-6.14;89.80;99416.47;5064845;28;20044;-73
2021/01/10 04:57:50;;;;;;;17.05;6.80;;;;;;;-5.90;90.00;99434.47;5071830;28;20068;-74
2021/01/10 05:00:17;;;;;;;15.23;6.90;;;;;;;-5.71;89.31;99453.63;5074341;28;20032;-73
2021/01/10 05:02:47;;;;;;;13.85;6.90;;;;;;;-5.90;89.16;99439.75;5073232;28;20024;-73
2021/01/10 05:05:14;;;;;;;13.00;5.88;;;;;;;-5.75;89.44;99446.81;5072845;28;20036;-74
2021/01/10 05:07:42;;;;;;;16.35;6.05;;;;;;;-5.61;89.56;99438.97;5074686;28;20025;-73
2021/01/10 05:10:08;;;;;;;13.90;5.72;;;;;;;-5.48;88.69;99456.75;5070405;28;20026;-74
2021/01/10 05:12:33;;;;;;;16.38;6.28;;;;;;;-5.57;88.09;99444.94;5074515;28;20024;-74
2021/01/10 05:14:59;;;;;;;16.48;7.82;;;;;;;-5.59;88.87;99444.16;5081400;28;20032;-73
2021/01/10 05:17:24;;;;;;;15.52;7.22;;;;;;;-5.60;89.14;99445.97;5077510;28;20364;-73
2021/01/10 05:19:50;;;;;;;15.75;6.88;;;;;;;-5.47;89.56;99453.19;5078748;28;20032;-73
2021/01/10 05:22:16;;;;;;;14.10;6.82;;;;;;;-5.36;88.46;99454.28;5078431;28;20028;-73
2021/01/10 05:24:42;;;;;;;16.77;7.20;;;;;;;-5.47;88.80;99455.81;5078711;28;20032;-73
2021/01/10 05:27:09;;;;;;;17.38;7.55;;;;;;;-5.40;89.57;99463.28;5077159;28;20490;-74
2021/01/10 05:29:34;;;;;;;15.65;7.15;;;;;;;-5.35;89.32;99452.47;5065248;28;20029;-74
2021/01/10 05:32:00;;;;;;;13.65;6.70;;;;;;;-5.10;88.17;99460.69;5064587;28;20059;-73
2021/01/10 05:34:26;;;;;;;13.38;6.57;;;;;;;-5.23;88.63;99438.59;5071220;28;20036;-73
2021/01/10 05:36:52;;;;;;;17.38;7.22;;;;;;;-5.01;89.37;99461.09;5079217;28;20111;-73
2021/01/10 05:39:22;;;;;;;16.83;7.28;;;;;;;-5.14;88.93;99442.50;5078105;28;20060;-73
2021/01/10 05:42:03;;;;;;;16.67;7.18;;;;;;;-5.03;88.77;99452.41;5059893;28;20518;-74
2021/01/10 05:44:49;;;;;;;13.10;6.25;;;;;;;-5.02;88.50;99462.06;5075492;28;20044;-74
2021/01/10 05:47:16;;;;;;;16.02;7.53;;;;;;;-5.00;88.79;99454.88;5079310;28;20044;-74
2021/01/10 05:49:50;;;;;;;14.27;7.57;;;;;;;-5.15;88.58;99439.00;5076918;28;20028;-74
2021/01/10 05:52:16;;;;;;;16.10;7.88;;;;;;;-4.94;88.90;99443.97;5079332;28;20055;-74
2021/01/10 05:54:55;;;;;;;13.77;6.47;;;;;;;-4.96;88.83;99425.59;5060912;28;20025;-74
2021/01/10 05:57:28;;;;;;;18.20;8.93;;;;;;;-4.98;86.86;99456.47;5077077;28;20092;-73
2021/01/10 05:59:55;;;;;;;19.50;8.50;;;;;;;-5.03;86.63;99458.56;5076069;28;20047;-72
2021/01/10 06:02:30;;;;;;;17.95;8.00;;;;;;;-5.04;87.77;99461.28;5075837;28;20406;-72
2021/01/10 06:05:11;;;;;;;17.65;7.60;;;;;;;-5.19;87.43;99465.63;5073893;28;20393;-74
2021/01/10 06:07:37;;;;;;;14.48;7.68;;;;;;;-5.11;87.65;99461.66;5077303;28;20031;-72
2021/01/10 06:10:04;;;;;;;16.73;7.82;;;;;;;-5.06;88.02;99466.63;5076361;28;20025;-72
2021/01/10 06:12:30;;;;;;;15.73;6.93;;;;;;;-5.17;87.11;99455.84;5074725;28;20028;-72
2021/01/10 06:15:16;;;;;;;20.85;7.90;;;;;;;-5.17;87.96;99454.06;5076758;28;20082;-73
2021/01/10 06:17:50;;;;;;;14.60;6.60;;;;;;;-5.01;87.86;99464.56;5059170;28;20045;-73
2021/01/10 06:20:32;;;;;;;17.95;7.80;;;;;;;-4.94;87.78;99447.47;5064835;28;20040;-72
2021/01/10 06:23:00;;;;;;;18.70;7.05;;;;;;;-4.94;87.69;99458.00;5071679;28;20073;-72
2021/01/10 06:25:27;;;;;;;17.58;7.68;;;;;;;-4.87;88.26;99462.00;5074497;28;20035;-72
2021/01/10 06:28:12;;;;;;;17.55;7.00;;;;;;;-4.78;88.67;99471.16;5075093;28;20029;-72
2021/01/10 06:30:41;;;;;;;16.38;8.20;;;;;;;-4.81;87.80;99470.50;5074280;28;20039;-72
2021/01/10 06:33:12;;;;;;;17.55;8.32;;;;;;;-4.92;88.00;99452.66;5076318;28;20056;-71
2021/01/10 06:35:40;;;;;;;17.15;7.43;;;;;;;-4.93;88.45;99424.56;5073368;28;20028;-74
2021/01/10 06:38:08;;;;;;;14.18;7.35;;;;;;;-4.63;88.56;99443.88;5081656;28;20025;-71
2021/01/10 06:40:38;;;;;;;14.83;6.50;;;;;;;-4.52;86.94;99452.94;5072087;28;20030;-74
2021/01/10 06:43:05;;;;;;;13.85;6.75;;;;;;;-4.47;87.60;99467.56;5072330;28;20043;-73
2021/01/10 06:45:39;;;;;;;14.18;7.10;;;;;;;-4.41;87.14;99461.06;5069704;28;20057;-73
2021/01/10 06:48:06;;;;;;;13.45;6.55;;;;;;;-4.48;87.43;99451.78;5069575;28;20474;-75
2021/01/10 06:50:33;;;;;;;14.98;7.35;;;;;;;-4.57;87.36;99440.00;5075036;28;20024;-70
2021/01/10 06:53:12;;;;;;;13.15;6.70;;;;;;;-4.23;86.82;99459.09;5075386;28;20029;-72
2021/01/10 06:55:37;;;;;;;19.45;8.38;;;;;;;-4.43;86.46;99436.50;5075974;28;20028;-77
2021/01/10 06:58:10;;;;;;;17.15;8.02;;;;;;;-4.51;87.54;99431.69;5075542;28;20376;-71
2021/01/10 07:00:55;;;;;;;21.55;8.05;;;;;;;-4.53;87.05;99438.00;5067906;28;20059;-70
2021/01/10 07:03:25;;;;;;;14.30;6.95;;;;;;;-4.46;87.21;99449.91;5078723;28;20044;-72
2021/01/10 07:05:56;;;;;;;;;;;;;;;-4.30;86.72;99460.41;5077466;28;20052;-73
2021/01/10 07:08:37;;;;;;;15.90;7.22;;;;;;;-5.10;86.69;99330.59;5179657;22;19922;-78
2021/01/10 07:11:23;;;;;;;12.23;6.22;;;;;;;-4.27;86.90;99462.84;5031447;28;20108;-71
2021/01/10 07:13:51;;;;;;;15.88;6.63;;;;;;;-4.28;87.94;99461.16;5013874;28;20028;-72
2021/01/10 07:16:20;;;;;;;15.95;7.15;;;;;;;-4.34;87.98;99470.31;5013479;28;20021;-78
2021/01/10 07:18:53;;;;;;;17.42;7.65;;;;;;;-4.34;88.09;99459.75;5031254;28;20022;-77
2021/01/10 07:21:32;;;;;;;14.88;6.78;;;;;;;-4.32;88.03;99473.72;5106883;23;20077;-78
2021/01/10 07:24:12;;;;;;;13.02;6.88;;;;;;;-4.28;87.68;99469.94;5015484;28;20072;-74
2021/01/10 07:26:51;;;;;;;19.40;8.90;;;;;;;-4.24;87.82;99476.75;5032261;28;20039;-72
2021/01/10 07:29:31;;;;;;;14.20;6.82;;;;;;;-4.16;87.49;99472.78;5017556;28;20447;-72
2021/01/10 07:31:58;;;;;;;19.63;9.27;;;;;;;-4.15;87.12;99474.47;5020990;28;20033;-70
2021/01/10 07:34:24;;;;;;;18.23;8.27;;;;;;;-4.22;87.09;99456.38;5017703;28;20091;-69
2021/01/10 07:36:54;;;;;;;23.23;9.40;;;;;;;-3.99;86.66;99469.94;5012399;28;20018;-70
2021/01/10 07:39:26;;;;;;;18.17;8.88;;;;;;;-3.93;87.09;99469.56;5006567;28;20033;-70
2021/01/10 07:41:53;;;;;;;17.23;8.32;;;;;;;-3.79;87.78;99474.84;5002191;28;20027;-67
2021/01/10 07:44:20;;;;;;;16.23;7.68;;;;;;;-3.79;86.95;99484.56;5016438;28;20479;-72
2021/01/10 07:46:52;;;;;;;18.70;8.55;;;;;;;-3.82;87.52;99482.97;5011218;28;20021;-70
2021/01/10 07:49:23;;;;;;;20.05;9.73;;;;;;;-3.89;87.04;99483.44;5019441;28;20018;-68
2021/01/10 07:51:49;;;;;;;17.35;8.90;;;;;;;-4.01;86.49;99471.81;5014558;28;20488;-70
2021/01/10 07:54:15;;;;;;;17.00;8.98;;;;;;;-3.99;86.25;99483.16;5010478;28;20037;-71
2021/01/10 07:56:40;;;;;;;20.58;8.25;;;;;;;-3.98;86.70;99469.00;5015691;28;20030;-70
2021/01/10 07:59:16;;;;;;;19.20;9.00;;;;;;;-3.80;85.86;99485.50;5001840;28;20022;-74
2021/01/10 08:01:49;;;;;;;20.40;9.93;;;;;;;-3.77;86.08;99477.41;5012233;28;20554;-74
2021/01/10 08:04:35;;;;;;;20.55;9.18;;;;;;;-3.69;85.64;99480.41;5014341;28;20037;-74
2021/01/10 08:07:03;;;;;;;19.55;9.38;;;;;;;-3.69;86.04;99464.53;5009013;28;20030;-74
2021/01/10 08:09:31;;;;;;;17.23;8.20;;;;;;;-3.48;85.01;99485.25;5011204;28;20076;-75
2021/01/10 08:11:58;;;;;;;14.38;6.53;;;;;;;-3.50;84.71;99484.53;5008239;28;20026;-74
2021/01/10 08:14:23;;;;;;;16.45;8.80;;;;;;;-3.47;84.85;99476.41;4997921;28;20072;-74
2021/01/10 08:16:48;;;;;;;14.38;7.97;;;;;;;-3.26;85.78;99492.69;5004607;28;20049;-73
2021/01/10 08:19:15;;;;;;;18.48;8.27;;;;;;;-3.29;85.24;99459.34;5006536;28;20061;-74
2021/01/10 08:21:41;;;;;;;14.95;8.02;;;;;;;-3.33;84.51;99463.13;5010131;28;20128;-74
2021/01/10 08:24:07;;;;;;;16.83;8.35;;;;;;;-3.11;84.86;99489.91;5005433;28;20109;-73
2021/01/10 08:26:39;;;;;;;18.23;9.02;;;;;;;-2.96;84.11;99488.06;5016758;28;20109;-73
2021/01/10 08:29:08;;;;;;;17.42;8.45;;;;;;;-2.61;83.19;99491.94;5008659;28;20069;-71
2021/01/10 08:31:35;;;;;;;10.35;5.00;;;;;;;-1.35;78.91;99465.44;5006178;28;20030;-72
2021/01/10 08:34:02;;;;;;;14.05;6.47;;;;;;;1.01;73.31;99492.41;5014198;28;20021;-74
2021/01/10 08:36:28;;;;;;;10.50;5.78;;;;;;;2.40;68.58;99479.72;5007758;28;20038;-75
2021/01/10 08:39:06;;;;;;;14.18;6.55;;;;;;;3.02;64.39;99480.47;5008928;28;20052;-74
2021/01/10 08:41:33;;;;;;;13.23;6.65;;;;;;;4.17;60.93;99453.75;5013831;28;20045;-73
2021/01/10 08:44:03;;;;;;;13.35;7.28;;;;;;;5.80;57.23;99459.13;5005125;28;20029;-74
2021/01/10 08:46:32;;;;;;;10.35;6.65;;;;;;;7.38;51.77;99455.13;4996640;28;20037;-71
2021/01/10 08:48:57;;;;;;;9.87;6.67;;;;;;;8.56;51.64;99453.63;5015701;28;22394;-71
2021/01/10 08:51:49;;;;;;;9.27;6.35;;;;;;;8.99;48.11;99454.13;5002548;28;20268;-72
2021/01/10 08:54:16;;;;;;;12.00;6.22;;;;;;;9.52;47.73;99461.53;5014405;28;20056;-71
2021/01/10 08:56:44;;;;;;;9.63;6.55;;;;;;;9.06;46.80;99450.69;5007079;28;20061;-71
2021/01/10 08:59:11;;;;;;;9.57;7.47;;;;;;;10.19;45.32;99453.50;5013379;28;20057;-73
2021/01/10 09:01:37;;;;;;;13.15;9.60;;;;;;;10.40;45.11;99460.94;5034674;28;20475;-73
2021/01/10 09:04:09;;;;;;;12.70;7.60;;;;;;;11.58;42.13;99462.56;5011404;28;20033;-70
2021/01/10 09:06:34;;;;;;;11.80;8.27;;;;;;;11.93;42.08;99459.97;5007370;28;20451;-73
2021/01/10 09:09:05;;;;;;;16.25;10.35;;;;;;;12.02;42.70;99456.06;5013799;28;20023;-70
2021/01/10 09:11:34;;;;;;;18.50;11.90;;;;;;;12.33;41.26;99446.69;4995833;28;20401;-70
2021/01/10 09:14:00;;;;;;;18.73;12.13;;;;;;;13.22;40.21;99454.00;5010797;28;20018;-73
2021/01/10 09:16:30;;;;;;;17.17;12.02;;;;;;;11.51;41.13;99442.69;5015034;28;20404;-71
2021/01/10 09:18:57;;;;;;;15.70;11.07;;;;;;;11.57;42.68;99444.59;5008298;28;20022;-73
2021/01/10 09:21:28;;;;;;;14.23;10.20;;;;;;;11.64;41.38;99455.50;5015050;28;20026;-74
2021/01/10 09:23:58;;;;;;;13.90;10.68;;;;;;;11.65;41.45;99448.22;5006089;28;20412;-77
2021/01/10 09:26:29;;;;;;;11.57;9.27;;;;;;;13.31;38.76;99444.66;5011844;28;20500;-77
2021/01/10 09:28:56;;;;;;;13.18;9.55;;;;;;;13.75;38.30;99456.00;5006965;28;20472;-78
2021/01/10 09:31:38;;;;;;;14.35;10.02;;;;;;;14.98;36.29;99448.09;5015960;28;20045;-78
2021/01/10 09:34:05;;;;;;;15.23;10.20;;;;;;;15.16;36.47;99443.81;5010946;28;20093;-73
2021/01/10 09:36:30;;;;;;;12.48;9.02;;;;;;;15.20;36.93;99447.81;5006556;28;20387;-75
2021/01/10 09:38:56;;;;;;;13.23;9.68;;;;;;;14.27;38.36;99440.72;5015001;28;20101;-73
2021/01/10 09:41:22;;;;;;;10.98;8.07;;;;;;;15.05;36.56;99440.72;5009106;28;20117;-73
2021/01/10 09:43:50;;;;;;;9.07;7.03;;;;;;;15.75;36.03;99442.66;5011072;28;20049;-73
2021/01/10 09:46:22;;;;;;;7.93;6.60;;;;;;;16.71;35.31;99454.97;5009634;28;20049;-73
2021/01/10 09:49:16;;;;;;;9.15;6.75;;;;;;;17.11;34.70;99453.69;5014710;28;20117;-72
2021/01/10 09:51:47;;;;;;;9.02;7.43;;;;;;;14.99;37.19;99448.94;5005355;28;20027;-73
2021/01/10 09:54:13;;;;;;;9.05;6.50;;;;;;;14.40;36.98;99459.75;5021555;28;20409;-73
2021/01/10 09:56:39;;;;;;;7.90;6.25;;;;;;;15.22;36.37;99451.97;5010940;28;20026;-72
2021/01/10 09:59:05;;;;;;;7.73;6.47;;;;;;;15.32;35.97;99435.97;5020302;28;20029;-72
2021/01/10 10:01:36;;;;;;;8.27;6.15;;;;;;;14.95;35.77;99440.34;5015007;28;20276;-71
2021/01/10 10:04:02;;;;;;;8.27;6.55;;;;;;;14.96;36.29;99441.19;5008782;28;20464;-72
2021/01/10 10:06:28;;;;;;;7.47;6.10;;;;;;;16.19;36.17;99440.78;5000681;28;20069;-73
2021/01/10 10:08:54;;;;;;;8.73;6.05;;;;;;;16.38;34.44;99433.50;5007282;28;20033;-70
2021/01/10 10:11:19;;;;;;;9.38;6.05;;;;;;;16.40;34.99;99425.88;5016405;28;20025;-71
2021/01/10 10:13:45;;;;;;;8.85;6.40;;;;;;;16.21;35.14;99439.50;5021326;28;20025;-71
2021/01/10 10:16:16;;;;;;;7.82;5.95;;;;;;;14.47;38.05;99443.41;5009997;28;20032;-71
2021/01/10 10:18:42;;;;;;;7.40;6.10;;;;;;;14.75;38.08;99436.88;5005057;28;20080;-70
2021/01/10 10:21:07;;;;;;;7.25;5.85;;;;;;;14.52;37.01;99443.63;5001462;28;20033;-70
2021/01/10 10:23:32;;;;;;;6.82;5.53;;;;;;;15.43;36.57;99429.00;5011476;28;20026;-70
2021/01/10 10:25:58;;;;;;;6.90;5.43;;;;;;;16.70;35.55;99416.97;5008244;28;20031;-71
2021/01/10 10:28:23;;;;;;;6.85;5.40;;;;;;;16.68;34.73;99427.28;5013401;28;20025;-70
2021/01/10 10:30:48;;;;;;;7.60;5.55;;;;;;;14.76;36.08;99424.94;5011679;28;20030;-70
2021/01/10 10:33:14;;;;;;;6.28;5.45;;;;;;;14.63;37.17;99414.91;5007962;28;20022;-69
2021/01/10 10:35:40;;;;;;;5.97;5.32;;;;;;;14.69;35.43;99395.81;5006047;28;20121;-70
2021/01/10 10:38:05;;;;;;;5.53;4.47;;;;;;;15.42;36.43;99427.31;4997770;28;20030;-70
2021/01/10 10:40:31;;;;;;;5.18;4.25;;;;;;;15.35;36.00;99421.06;5011888;28;20026;-70
2021/01/10 10:42:57;;;;;;;5.82;4.85;;;;;;;16.57;34.51;99404.28;5012939;28;20479;-74
2021/01/10 10:45:22;;;;;;;6.22;4.68;;;;;;;14.51;36.68;99419.31;5008901;28;20030;-74
2021/01/10 10:47:47;;;;;;;5.38;3.60;;;;;;;13.81;36.95;99409.81;5003911;28;20057;-74
2021/01/10 10:50:13;;;;;;;5.20;4.05;;;;;;;14.80;36.46;99405.22;5009055;28;20022;-74
2021/01/10 10:52:41;;;;;;;4.45;3.55;;;;;;;15.81;35.40;99410.91;5003395;28;20384;-75
2021/01/10 10:55:06;;;;;;;4.18;3.40;;;;;;;12.76;38.43;99397.66;5003679;28;20041;-75
2021/01/10 10:57:31;;;;;;;3.90;3.30;;;;;;;13.08;38.59;99417.00;5013655;28;20109;-75
2021/01/10 10:59:57;;;;;;;4.20;3.60;;;;;;;13.09;38.91;99414.03;5013956;28;20030;-76
2021/01/10 11:02:23;;;;;;;3.92;2.85;;;;;;;14.72;36.40;99400.00;5012848;28;20025;-76
2021/01/10 11:04:49;;;;;;;4.93;3.55;;;;;;;15.78;35.54;99402.13;5011582;28;20084;-75
2021/01/10 11:07:15;;;;;;;4.68;3.45;;;;;;;16.46;33.79;99394.13;5012332;28;20435;-76
2021/01/10 11:09:42;;;;;;;4.18;3.38;;;;;;;14.85;34.74;99399.94;5011463;28;20076;-76
2021/01/10 11:12:11;;;;;;;4.15;3.20;;;;;;;15.03;34.39;99401.94;5011651;28;20040;-77
2021/01/10 11:14:36;;;;;;;;;;;;;;;14.93;34.73;99393.41;5000022;28;20038;-76
2021/01/10 11:17:06;;;;;;;3.85;2.92;;;;;;;16.76;32.55;99375.88;4992063;28;19997;-76
2021/01/10 11:19:32;;;;;;;4.18;3.17;;;;;;;14.61;34.44;99374.28;4992188;28;20053;-76
2021/01/10 11:22:00;;;;;;;3.53;2.92;;;;;;;15.72;33.03;99358.53;4999206;28;20072;-76
2021/01/10 11:24:25;;;;;;;4.07;3.28;;;;;;;15.08;34.27;99377.59;5024647;28;20079;-76
2021/01/10 11:26:50;;;;;;;4.38;3.40;;;;;;;16.98;32.81;99364.50;5009692;28;20028;-75
2021/01/10 11:29:17;;;;;;;3.45;3.08;;;;;;;18.03;30.44;99355.72;4993317;28;20673;-76
2021/01/10 11:31:42;;;;;;;4.65;3.40;;;;;;;15.58;33.97;99355.03;5007699;28;20034;-74